Time;durP1;ratioP1;P1;durP2;ratioP2;P2;SDS_P1;SDS_P2;PMS_P1;PMS_P2;Temp;Humidity;BMP_temperature;BMP_pressure;BME280_temperature;BME280_humidity;BME280_pressure;Samples;Min_cycle;Max_cycle;Signal;HPM_P1;HPM_P2
2022/01/31 00:01:26;;;;;;;14.68;6.20;;;0.30;99.90;;;;;;6130707;29;20035;-79
2022/01/31 00:04:27;;;;;;;11.27;6.15;;;2.30;99.90;;;;;;6130313;29;20035;-80
2022/01/31 00:07:28;;;;;;;11.40;6.72;;;1.70;99.90;;;;;;6130108;29;20526;-80
2022/01/31 00:10:30;;;;;;;16.30;6.85;;;1.80;99.90;;;;;;6129683;29;20414;-80
2022/01/31 00:16:32;;;;;;;17.60;7.72;;;0.40;99.90;;;;;;6129698;29;20482;-79
2022/01/31 00:19:34;;;;;;;10.90;6.03;;;0.10;99.90;;;;;;6130151;29;20089;-79
2022/01/31 00:22:35;;;;;;;10.25;5.40;;;0.80;99.90;;;;;;6129886;29;20030;-80
2022/01/31 00:25:35;;;;;;;17.10;7.80;;;0.90;99.90;;;;;;6113156;29;20114;-78
2022/01/31 00:28:36;;;;;;;35.85;13.75;;;1.00;99.90;;;;;;6113597;28;20055;-80
2022/01/31 00:31:36;;;;;;;23.38;9.48;;;-0.10;99.90;;;;;;6129582;28;20042;-79
2022/01/31 00:34:37;;;;;;;17.85;7.65;;;0.20;99.90;;;;;;6113576;29;20035;-79
2022/01/31 00:37:38;;;;;;;15.32;7.00;;;-0.10;99.90;;;;;;6113168;29;20082;-79
2022/01/31 00:40:41;;;;;;;11.23;5.95;;;0.90;99.90;;;;;;6113563;29;20031;-79
2022/01/31 00:43:45;;;;;;;15.13;6.13;;;1.80;99.90;;;;;;6129729;29;20029;-79
2022/01/31 00:46:59;;;;;;;11.60;5.90;;;0.20;99.90;;;;;;6129772;29;20055;-79
2022/01/31 00:50:10;;;;;;;16.42;6.10;;;1.00;99.90;;;;;;6114748;29;20039;-79
2022/01/31 00:53:11;;;;;;;12.52;5.88;;;1.00;99.90;;;;;;6114574;29;20045;-78
2022/01/31 00:56:12;;;;;;;16.73;7.60;;;;;;;;;;6113029;29;20043;-79
2022/01/31 00:59:12;;;;;;;17.23;8.35;;;0.40;99.90;;;;;;6129016;29;20054;-80
2022/01/31 01:02:13;;;;;;;16.80;5.93;;;2.10;99.90;;;;;;6128951;29;20027;-80
2022/01/31 01:05:14;;;;;;;16.42;5.47;;;0.80;99.90;;;;;;6113098;29;20058;-80
2022/01/31 01:08:14;;;;;;;10.52;5.65;;;2.30;99.90;;;;;;6113062;29;20995;-79
2022/01/31 01:11:15;;;;;;;14.32;5.90;;;0.90;99.90;;;;;;6112686;29;20062;-79
2022/01/31 01:14:16;;;;;;;14.35;5.82;;;1.60;99.90;;;;;;6129110;29;20031;-79
2022/01/31 01:17:17;;;;;;;9.57;5.75;;;0.70;99.90;;;;;;6112564;28;20043;-79
2022/01/31 01:20:17;;;;;;;13.82;5.20;;;1.30;99.90;;;;;;6128980;29;20474;-79
2022/01/31 01:23:18;;;;;;;16.25;5.68;;;0.60;99.90;;;;;;6112551;28;20081;-79
2022/01/31 01:26:19;;;;;;;9.80;4.85;;;1.00;99.90;;;;;;6119140;29;20039;-79
2022/01/31 01:29:20;;;;;;;15.70;5.30;;;1.80;99.90;;;;;;6135078;28;20133;-80
2022/01/31 01:32:20;;;;;;;15.77;5.35;;;2.80;99.90;;;;;;6133786;29;20430;-80
2022/01/31 01:35:21;;;;;;;12.32;5.50;;;1.90;99.90;;;;;;6133221;28;20046;-79
2022/01/31 01:38:28;;;;;;;7.68;4.95;;;1.50;99.90;;;;;;6117698;29;20039;-79
2022/01/31 01:41:28;;;;;;;12.65;5.43;;;1.90;99.90;;;;;;6134157;29;20031;-79
2022/01/31 01:44:44;;;;;;;10.93;4.55;;;3.10;99.90;;;;;;6133005;28;20573;-80
2022/01/31 01:47:44;;;;;;;13.02;5.32;;;2.70;99.90;;;;;;6133285;28;20029;-79
2022/01/31 01:50:45;;;;;;;13.20;4.72;;;2.00;99.90;;;;;;6117160;29;20462;-80
2022/01/31 01:53:46;;;;;;;11.73;4.22;;;2.40;99.90;;;;;;6133290;29;20119;-79
2022/01/31 01:56:46;;;;;;;12.52;4.22;;;2.20;99.90;;;;;;6132786;28;20047;-80
2022/01/31 01:59:47;;;;;;;12.65;5.25;;;2.00;99.90;;;;;;6133092;29;20041;-79
2022/01/31 02:02:47;;;;;;;11.55;4.22;;;2.90;99.90;;;;;;6116384;28;20031;-79
2022/01/31 02:05:48;;;;;;;12.15;4.57;;;4.60;99.90;;;;;;6133192;29;20071;-81
2022/01/31 02:08:48;;;;;;;13.90;4.72;;;2.60;99.90;;;;;;6133043;29;20039;-80
2022/01/31 02:11:49;;;;;;;10.77;4.95;;;2.70;99.90;;;;;;6116643;29;20067;-79
2022/01/31 02:14:50;;;;;;;12.88;5.05;;;2.70;99.90;;;;;;6132432;29;20462;-80
2022/01/31 02:17:50;;;;;;;12.10;4.70;;;4.00;99.90;;;;;;6132312;29;20043;-81
2022/01/31 02:20:51;;;;;;;10.75;4.75;;;2.90;99.90;;;;;;6132439;29;20552;-79
2022/01/31 02:23:51;;;;;;;20.00;5.53;;;4.40;99.90;;;;;;6132607;28;20031;-81
2022/01/31 02:26:52;;;;;;;10.63;4.63;;;2.80;99.90;;;;;;6116531;29;20028;-80
2022/01/31 02:29:53;;;;;;;9.35;4.70;;;2.70;99.90;;;;;;6132102;29;20091;-79
2022/01/31 02:32:53;;;;;;;11.65;4.70;;;3.30;99.90;;;;;;6116061;29;20397;-80
2022/01/31 02:36:02;;;;;;;13.55;4.75;;;3.00;99.90;;;;;;6114894;29;20066;-80
2022/01/31 02:39:04;;;;;;;9.32;3.75;;;2.90;99.90;;;;;;6132252;29;20023;-81
2022/01/31 02:42:05;;;;;;;;;;;2.90;99.90;;;;;;6116232;29;20035;-80
2022/01/31 02:45:06;;;;;;;18.50;4.75;;;2.70;99.90;;;;;;6115747;29;19910;-80
2022/01/31 02:48:07;;;;;;;14.27;4.15;;;2.70;99.90;;;;;;6115844;29;20118;-79
2022/01/31 02:51:10;;;;;;;12.50;4.35;;;2.70;99.90;;;;;;6131678;29;20386;-79
2022/01/31 02:54:11;;;;;;;9.52;4.20;;;3.00;99.90;;;;;;6132221;29;20095;-79
2022/01/31 02:57:12;;;;;;;16.90;4.85;;;3.10;99.90;;;;;;6115407;29;20074;-80
2022/01/31 03:00:13;;;;;;;10.88;3.85;;;3.30;99.90;;;;;;6115832;29;20027;-79
2022/01/31 03:03:13;;;;;;;7.57;3.67;;;2.80;99.90;;;;;;6115450;28;20041;-79
2022/01/31 03:06:14;;;;;;;10.07;4.75;;;2.90;99.90;;;;;;6131555;29;20062;-80
2022/01/31 03:09:15;;;;;;;10.50;3.85;;;3.00;99.90;;;;;;6130970;29;20137;-79
2022/01/31 03:12:16;;;;;;;13.18;5.03;;;2.80;99.90;;;;;;6131653;29;20046;-79
2022/01/31 03:15:17;;;;;;;11.15;4.35;;;3.00;99.90;;;;;;6115283;29;20065;-79
2022/01/31 03:18:17;;;;;;;11.45;3.75;;;2.90;99.90;;;;;;6114989;29;20039;-79
2022/01/31 03:21:18;;;;;;;6.65;3.55;;;3.40;99.90;;;;;;6131218;29;20462;-79
2022/01/31 03:24:19;;;;;;;12.98;4.18;;;3.20;99.90;;;;;;6114968;28;20104;-79
2022/01/31 03:27:19;;;;;;;8.90;3.80;;;3.10;99.90;;;;;;6131480;29;20035;-80
2022/01/31 03:30:21;;;;;;;11.13;3.97;;;3.60;99.90;;;;;;6130733;28;20462;-79
2022/01/31 03:33:22;;;;;;;9.67;3.97;;;3.50;99.90;;;;;;6130669;29;20090;-80
2022/01/31 03:36:22;;;;;;;14.90;4.20;;;3.70;99.90;;;;;;6114567;29;20051;-79
2022/01/31 03:39:23;;;;;;;9.75;4.00;;;3.50;99.90;;;;;;6130807;29;20390;-80
2022/01/31 03:42:24;;;;;;;7.88;3.60;;;3.40;99.90;;;;;;6114403;29;20042;-80
2022/01/31 03:45:24;;;;;;;11.65;3.67;;;3.40;99.90;;;;;;6115591;29;20066;-80
2022/01/31 03:48:27;;;;;;;12.38;5.18;;;3.60;99.90;;;;;;6114694;29;20467;-80
2022/01/31 03:51:28;;;;;;;12.43;4.30;;;3.50;99.90;;;;;;6129974;29;20110;-81
2022/01/31 03:54:28;;;;;;;11.00;4.57;;;3.80;99.90;;;;;;6114416;29;20458;-80
2022/01/31 03:57:31;;;;;;;8.77;3.95;;;3.40;99.90;;;;;;6113767;29;20536;-79
2022/01/31 04:00:31;;;;;;;16.50;4.38;;;3.80;99.90;;;;;;6114270;29;20466;-80
2022/01/31 04:03:32;;;;;;;12.00;4.38;;;3.60;99.90;;;;;;6114023;29;20046;-80
2022/01/31 04:06:32;;;;;;;11.80;4.93;;;3.80;99.90;;;;;;6114047;29;20038;-80
2022/01/31 04:09:33;;;;;;;14.77;3.63;;;4.90;99.90;;;;;;6113791;28;20047;-81
2022/01/31 04:12:34;;;;;;;11.30;4.15;;;4.60;99.90;;;;;;6130119;29;20041;-79
2022/01/31 04:15:35;;;;;;;8.93;4.38;;;3.70;99.90;;;;;;6129857;29;20031;-80
2022/01/31 04:18:35;;;;;;;11.00;4.18;;;3.70;99.90;;;;;;6129715;28;20121;-80
2022/01/31 04:21:36;;;;;;;11.00;5.03;;;5.60;99.90;;;;;;6113761;29;20031;-80
2022/01/31 04:24:40;;;;;;;10.93;4.22;;;5.10;99.90;;;;;;6129684;29;20031;-79
2022/01/31 04:27:45;;;;;;;13.73;4.78;;;3.70;99.90;;;;;;6130560;29;20114;-78
2022/01/31 04:33:53;;;;;;;11.35;4.97;;;4.30;99.90;;;;;;6130765;29;20066;-80
2022/01/31 04:36:54;;;;;;;10.20;4.78;;;3.70;99.90;;;;;;6113373;28;20082;-79
2022/01/31 04:39:54;;;;;;;14.68;4.57;;;5.50;99.90;;;;;;6130096;29;20034;-80
2022/01/31 04:42:55;;;;;;;15.05;4.70;;;5.00;99.90;;;;;;6113457;28;20023;-79
2022/01/31 04:46:00;;;;;;;10.30;3.95;;;4.20;99.90;;;;;;6129439;29;20033;-79
2022/01/31 04:49:00;;;;;;;11.40;4.45;;;5.30;99.90;;;;;;6113870;29;20038;-81
2022/01/31 04:52:01;;;;;;;11.90;4.82;;;5.60;99.90;;;;;;6129976;29;20031;-79
2022/01/31 04:55:02;;;;;;;8.73;4.00;;;4.40;99.90;;;;;;6113221;29;20126;-80
2022/01/31 04:58:03;;;;;;;10.10;4.78;;;4.80;99.90;;;;;;6112508;29;20127;-79
2022/01/31 05:01:04;;;;;;;10.23;4.70;;;5.00;99.90;;;;;;6112882;29;20055;-79
2022/01/31 05:04:05;;;;;;;12.55;4.70;;;4.40;99.90;;;;;;6112963;29;20055;-80
2022/01/31 05:07:06;;;;;;;12.73;5.15;;;4.70;99.90;;;;;;6113276;29;20060;-80
2022/01/31 05:10:07;;;;;;;11.05;5.03;;;4.40;99.90;;;;;;6112635;28;20822;-79
2022/01/31 05:13:07;;;;;;;11.65;4.72;;;4.60;99.90;;;;;;6113301;29;20078;-81
2022/01/31 05:16:08;;;;;;;8.25;4.10;;;4.60;99.90;;;;;;6128658;29;20478;-79
2022/01/31 05:19:09;;;;;;;9.52;4.40;;;4.60;99.90;;;;;;6112551;29;20031;-80
2022/01/31 05:22:09;;;;;;;7.53;4.65;;;5.10;99.90;;;;;;6112803;29;20031;-79
2022/01/31 05:25:10;;;;;;;7.35;4.50;;;4.70;99.90;;;;;;6112740;29;20101;-79
2022/01/31 05:28:10;;;;;;;11.15;4.70;;;4.50;99.90;;;;;;6112912;29;20054;-79
2022/01/31 05:31:11;;;;;;;9.40;4.45;;;4.90;99.90;;;;;;6128145;29;20102;-78
2022/01/31 05:34:12;;;;;;;11.55;4.90;;;5.20;99.90;;;;;;6113244;29;20027;-79
2022/01/31 05:37:13;;;;;;;8.05;4.72;;;4.90;99.90;;;;;;6128344;29;20039;-80
2022/01/31 05:40:13;;;;;;;12.60;5.03;;;4.70;99.90;;;;;;6112501;29;20119;-77
2022/01/31 05:43:16;;;;;;;11.40;5.13;;;6.20;99.90;;;;;;6112519;29;20027;-81
2022/01/31 05:46:17;;;;;;;9.52;4.78;;;4.80;99.90;;;;;;6112989;29;20036;-79
2022/01/31 05:49:18;;;;;;;12.63;5.22;;;5.00;99.90;;;;;;6128937;29;20446;-82
2022/01/31 05:52:19;;;;;;;10.45;4.45;;;4.80;99.90;;;;;;6128266;29;20110;-82
2022/01/31 05:55:19;;;;;;;10.35;4.30;;;4.70;99.90;;;;;;6128774;29;20125;-79
2022/01/31 05:58:20;;;;;;;12.27;4.38;;;4.80;99.90;;;;;;6127944;29;20087;-80
2022/01/31 06:01:20;;;;;;;8.27;4.35;;;4.70;99.90;;;;;;6128822;29;20023;-79
2022/01/31 06:04:21;;;;;;;8.32;4.00;;;4.80;99.90;;;;;;6113242;29;20046;-81
2022/01/31 06:07:22;;;;;;;8.25;4.50;;;4.70;99.90;;;;;;6113291;29;20039;-82
2022/01/31 06:10:23;;;;;;;12.55;5.03;;;4.80;99.90;;;;;;6113622;29;20062;-81
2022/01/31 06:13:28;;;;;;;7.32;3.95;;;5.50;99.90;;;;;;6132830;29;20082;-81
2022/01/31 06:16:28;;;;;;;8.00;3.85;;;4.90;99.90;;;;;;6132822;29;20071;-80
2022/01/31 06:19:29;;;;;;;8.98;4.07;;;5.10;99.90;;;;;;6132046;28;20474;-80
2022/01/31 06:22:30;;;;;;;10.02;4.25;;;4.90;99.90;;;;;;6131994;29;20102;-82
2022/01/31 06:25:31;;;;;;;9.32;4.63;;;4.90;99.90;;;;;;6130641;29;20549;-81
2022/01/31 06:28:32;;;;;;;6.05;3.78;;;5.00;99.90;;;;;;6116676;29;20035;-80
2022/01/31 06:31:32;;;;;;;10.77;4.32;;;4.90;99.90;;;;;;6115244;29;20027;-79
2022/01/31 06:34:33;;;;;;;6.65;3.45;;;5.30;99.90;;;;;;6116266;29;20430;-79
2022/01/31 06:37:34;;;;;;;7.43;3.92;;;5.80;99.90;;;;;;6131553;29;20043;-80
2022/01/31 06:40:44;;;;;;;7.03;3.85;;;5.00;99.90;;;;;;6115837;29;20105;-82
2022/01/31 06:43:45;;;;;;;8.00;4.07;;;4.90;99.90;;;;;;6115602;29;20039;-80
2022/01/31 06:46:46;;;;;;;6.78;3.78;;;5.10;99.90;;;;;;6131968;29;20076;-79
2022/01/31 06:49:47;;;;;;;9.32;4.15;;;4.90;99.90;;;;;;6114446;29;20034;-84
2022/01/31 06:52:51;;;;;;;5.28;3.40;;;4.90;99.90;;;;;;6131020;29;20041;-80
2022/01/31 06:55:52;;;;;;;5.40;3.45;;;4.90;99.90;;;;;;6116330;29;20043;-82
2022/01/31 06:58:53;;;;;;;6.82;3.30;;;4.90;99.90;;;;;;6115463;29;20043;-81
2022/01/31 07:01:53;;;;;;;4.10;3.10;;;4.80;99.90;;;;;;6115800;29;20041;-82
2022/01/31 07:04:54;;;;;;;4.80;2.70;;;4.70;99.90;;;;;;6131485;28;20442;-81
2022/01/31 07:07:55;;;;;;;4.00;2.90;;;4.60;99.90;;;;;;6115407;29;20082;-80
2022/01/31 07:10:55;;;;;;;5.93;2.83;;;4.70;99.90;;;;;;6114945;28;20386;-80
2022/01/31 07:14:06;;;;;;;3.78;2.53;;;4.60;99.90;;;;;;6131603;29;20042;-80
2022/01/31 07:17:07;;;;;;;5.15;2.80;;;4.40;99.90;;;;;;6116456;29;20050;-81
2022/01/31 07:20:19;;;;;;;4.18;3.78;;;4.50;99.90;;;;;;6114309;28;20027;-80
2022/01/31 07:23:26;;;;;;;3.33;2.72;;;4.50;99.90;;;;;;6115422;29;20427;-81
2022/01/31 07:26:27;;;;;;;5.03;3.00;;;4.70;99.90;;;;;;6132416;29;20035;-80
2022/01/31 07:29:29;;;;;;;2.70;2.50;;;4.90;99.90;;;;;;6130859;28;20141;-82
2022/01/31 07:32:30;;;;;;;3.35;2.80;;;4.40;99.90;;;;;;6131285;29;20027;-80
2022/01/31 07:35:30;;;;;;;5.95;2.60;;;4.40;99.90;;;;;;6114799;29;20673;-80
2022/01/31 07:38:31;;;;;;;4.90;2.58;;;4.40;99.90;;;;;;6130800;28;20038;-81
2022/01/31 07:41:32;;;;;;;3.63;2.63;;;4.40;99.90;;;;;;6114746;29;20064;-83
2022/01/31 07:44:33;;;;;;;7.05;4.03;;;4.40;99.90;;;;;;6130550;28;20639;-81
2022/01/31 07:47:33;;;;;;;7.47;2.65;;;4.30;99.90;;;;;;6114635;29;20034;-80
2022/01/31 07:50:36;;;;;;;3.95;2.60;;;4.30;99.90;;;;;;6130353;28;20129;-79
2022/01/31 07:53:39;;;;;;;4.70;2.63;;;4.30;99.90;;;;;;6114457;29;20113;-81
2022/01/31 07:56:40;;;;;;;2.50;2.30;;;4.60;99.90;;;;;;6130645;29;20098;-81
2022/01/31 07:59:40;;;;;;;2.85;2.08;;;4.30;99.90;;;;;;6129541;29;20462;-81
2022/01/31 08:02:41;;;;;;;2.50;2.30;;;4.20;99.90;;;;;;6129806;29;20105;-81
2022/01/31 08:05:42;;;;;;;2.72;2.25;;;5.30;99.90;;;;;;6113892;29;20493;-82
2022/01/31 08:08:43;;;;;;;2.45;2.25;;;3.70;99.90;;;;;;6129540;29;20023;-81
2022/01/31 08:11:43;;;;;;;2.63;2.10;;;4.70;99.90;;;;;;6112991;29;20658;-79
2022/01/31 08:14:45;;;;;;;2.50;2.10;;;4.30;99.90;;;;;;6129570;29;20066;-80
2022/01/31 08:17:46;;;;;;;2.00;1.90;;;4.60;99.90;;;;;;6112269;28;20134;-79
2022/01/31 08:20:46;;;;;;;1.80;1.70;;;4.20;99.90;;;;;;6097641;29;20027;-79
2022/01/31 08:23:47;;;;;;;2.65;2.13;;;4.20;99.90;;;;;;6131318;28;20036;-80
2022/01/31 08:26:47;;;;;;;2.72;2.03;;;4.80;99.90;;;;;;6113460;29;20074;-81
2022/01/31 08:29:48;;;;;;;1.08;1.08;;;3.90;99.90;;;;;;6128445;29;20114;-81
2022/01/31 08:32:59;;;;;;;2.00;1.80;;;4.30;99.90;;;;;;6113573;28;20038;-80
2022/01/31 08:36:05;;;;;;;2.13;1.65;;;4.30;99.90;;;;;;6129757;29;20066;-80
2022/01/31 08:39:15;;;;;;;1.80;1.70;;;4.40;99.90;;;;;;6112841;28;20039;-78
2022/01/31 08:42:15;;;;;;;2.80;2.45;;;4.40;99.90;;;;;;6129659;29;20031;-80
2022/01/31 08:45:16;;;;;;;1.65;1.55;;;4.40;99.90;;;;;;6113426;28;20446;-80
2022/01/31 08:48:17;;;;;;;2.20;1.17;;;4.40;99.90;;;;;;6113135;29;20120;-81
2022/01/31 08:51:17;;;;;;;1.80;1.60;;;4.80;99.90;;;;;;6113256;29;20034;-81
2022/01/31 08:54:20;;;;;;;2.30;1.90;;;4.40;99.90;;;;;;6113427;29;20027;-80
2022/01/31 08:57:20;;;;;;;2.15;1.77;;;4.40;99.90;;;;;;6128743;29;20043;-80
2022/01/31 09:00:22;;;;;;;1.92;1.77;;;4.90;99.90;;;;;;6113088;29;20515;-79
2022/01/31 09:03:40;;;;;;;3.00;1.83;;;4.40;99.90;;;;;;6129082;29;20035;-80
2022/01/31 09:06:43;;;;;;;1.92;1.65;;;4.40;99.90;;;;;;6131908;29;20474;-79
2022/01/31 09:09:44;;;;;;;2.22;1.48;;;4.40;99.90;;;;;;6113539;29;20481;-81
2022/01/31 09:12:45;;;;;;;2.97;2.33;;;4.30;99.90;;;;;;6113133;29;20035;-80
2022/01/31 09:15:45;;;;;;;1.40;1.30;;;4.70;99.90;;;;;;6128127;28;20043;-81
2022/01/31 09:18:46;;;;;;;1.80;1.70;;;4.30;99.90;;;;;;6128253;29;20505;-81
2022/01/31 09:21:46;;;;;;;2.10;1.90;;;4.60;99.90;;;;;;6128112;29;20085;-81
2022/01/31 09:24:50;;;;;;;2.25;1.83;;;4.20;99.90;;;;;;6112669;28;20474;-79
2022/01/31 09:27:51;;;;;;;2.20;2.00;;;4.20;99.90;;;;;;6113570;29;20027;-79
2022/01/31 09:30:52;;;;;;;2.25;2.05;;;4.20;99.90;;;;;;6112721;29;20035;-79
2022/01/31 09:33:53;;;;;;;3.95;2.55;;;4.30;99.90;;;;;;6113078;29;20035;-78
2022/01/31 09:36:53;;;;;;;2.58;1.92;;;4.20;99.90;;;;;;6112729;29;20046;-79
2022/01/31 09:40:01;;;;;;;4.72;2.60;;;4.60;99.90;;;;;;6112915;29;20031;-78
2022/01/31 09:49:38;;;;;;;3.92;2.17;;;4.00;99.90;;;;;;6098131;29;20422;-80
2022/01/31 09:52:39;;;;;;;3.25;2.40;;;5.40;99.90;;;;;;6116229;29;20027;-81
2022/01/31 09:55:40;;;;;;;2.95;2.65;;;4.30;99.90;;;;;;6100567;29;20051;-82
2022/01/31 09:58:41;;;;;;;4.43;2.20;;;4.20;99.90;;;;;;6117823;29;20031;-84
2022/01/31 10:01:46;;;;;;;2.13;1.92;;;3.90;99.90;;;;;;6117444;29;20027;-80
2022/01/31 10:04:48;;;;;;;1.90;1.80;;;3.50;99.90;;;;;;6118138;29;20453;-82
2022/01/31 10:07:48;;;;;;;3.28;2.30;;;3.30;99.90;;;;;;6117441;28;20042;-83
2022/01/31 10:10:49;;;;;;;3.72;2.40;;;3.50;99.90;;;;;;6117153;29;20059;-81
2022/01/31 10:17:28;;;;;;;5.05;3.40;;;4.40;99.90;;;;;;6135171;28;20047;-80
2022/01/31 10:20:32;;;;;;;3.45;2.75;;;4.40;99.90;;;;;;6132543;29;20118;-79
2022/01/31 10:23:40;;;;;;;4.60;3.55;;;4.40;99.90;;;;;;6116256;29;20079;-80
2022/01/31 10:26:41;;;;;;;4.00;2.97;;;4.50;99.90;;;;;;6115514;29;20035;-80
2022/01/31 10:29:43;;;;;;;2.90;2.60;;;5.10;99.90;;;;;;6115004;29;20031;-83
2022/01/31 10:32:45;;;;;;;4.45;2.58;;;4.40;99.90;;;;;;6131735;29;20395;-80
2022/01/31 10:35:45;;;;;;;3.10;2.42;;;4.40;99.90;;;;;;6131503;28;20047;-79
2022/01/31 10:38:48;;;;;;;3.88;2.50;;;4.40;99.90;;;;;;6115825;29;20453;-83
2022/01/31 10:54:53;;;;;;;4.60;2.40;;;4.10;99.90;;;;;;6131731;28;20175;-81
2022/01/31 10:58:07;;;;;;;4.80;2.90;;;4.10;99.90;;;;;;6130636;29;20039;-79
2022/01/31 11:01:15;;;;;;;3.63;2.67;;;3.90;99.90;;;;;;6115918;29;20138;-79
2022/01/31 11:04:15;;;;;;;4.20;2.50;;;4.10;99.90;;;;;;6131754;28;20039;-80
2022/01/31 11:07:17;;;;;;;2.97;2.38;;;4.10;99.90;;;;;;6115514;29;20078;-81
2022/01/31 11:10:28;;;;;;;2.90;2.45;;;4.30;99.90;;;;;;6114702;29;20062;-79
2022/01/31 11:13:30;;;;;;;3.20;2.60;;;4.30;99.90;;;;;;6099995;29;20074;-81
2022/01/31 11:16:31;;;;;;;5.65;2.65;;;4.20;99.90;;;;;;6131532;28;20161;-83
2022/01/31 11:19:33;;;;;;;7.57;2.60;;;4.00;99.90;;;;;;6131378;29;20102;-82
2022/01/31 11:22:37;;;;;;;4.13;3.13;;;5.50;99.90;;;;;;6115628;29;20031;-82
2022/01/31 11:25:38;;;;;;;3.42;2.90;;;6.10;99.90;;;;;;6131730;29;20049;-82
2022/01/31 11:28:41;;;;;;;5.95;2.95;;;4.30;99.90;;;;;;6115356;29;20066;-83
2022/01/31 11:31:41;;;;;;;5.30;2.95;;;4.30;99.90;;;;;;6115368;28;20043;-84
2022/01/31 11:34:44;;;;;;;4.10;2.90;;;4.40;99.90;;;;;;6114536;28;20106;-84
2022/01/31 11:37:44;;;;;;;5.28;2.70;;;4.30;99.90;;;;;;6115067;28;20624;-83
2022/01/31 11:40:46;;;;;;;4.32;3.40;;;4.30;99.90;;;;;;6111629;28;20031;-85
2022/01/31 11:43:55;;;;;;;3.37;3.00;;;4.20;99.90;;;;;;6114136;28;20394;-83
2022/01/31 11:46:57;;;;;;;3.40;3.10;;;4.20;99.90;;;;;;6131213;29;20131;-83
2022/01/31 11:49:59;;;;;;;4.07;2.40;;;4.20;99.90;;;;;;6113948;28;20027;-84
2022/01/31 11:53:00;;;;;;;4.90;3.22;;;4.20;99.90;;;;;;6130499;29;20043;-82
2022/01/31 11:56:22;;;;;;;2.15;1.88;;;4.50;99.90;;;;;;6129922;29;20503;-81
2022/01/31 11:59:23;;;;;;;2.00;1.80;;;4.30;99.90;;;;;;6109706;29;20027;-84
2022/01/31 12:02:25;;;;;;;4.35;2.63;;;4.10;99.90;;;;;;6114656;28;20081;-84
2022/01/31 12:05:28;;;;;;;5.13;2.60;;;4.10;99.90;;;;;;6114513;29;20058;-83
2022/01/31 12:08:40;;;;;;;;;;;4.00;99.90;;;;;;6114492;29;20030;-84
2022/01/31 12:12:02;;;;;;;6.35;2.33;;;4.00;99.90;;;;;;6115602;29;20404;-88
2022/01/31 12:19:01;;;;;;;3.60;2.33;;;3.90;99.90;;;;;;6147602;29;20129;-83
2022/01/31 12:22:03;;;;;;;4.45;2.30;;;4.00;99.90;;;;;;6115306;29;20043;-85
2022/01/31 12:25:29;;;;;;;2.58;2.15;;;3.90;99.90;;;;;;6130195;29;20038;-86
2022/01/31 12:28:40;;;;;;;2.00;1.77;;;4.10;99.90;;;;;;6113809;29;20122;-82
2022/01/31 12:31:45;;;;;;;3.83;1.88;;;4.50;99.90;;;;;;6129460;28;20034;-83
2022/01/31 12:34:59;;;;;;;3.40;1.60;;;3.90;99.90;;;;;;6114114;29;20039;-84
2022/01/31 12:37:59;;;;;;;2.17;1.95;;;4.10;99.90;;;;;;6113517;29;20101;-85
2022/01/31 12:41:05;;;;;;;5.00;2.45;;;4.30;99.90;;;;;;6113919;28;20110;-82
2022/01/31 12:44:32;;;;;;;5.57;2.30;;;6.40;99.90;;;;;;6114176;28;20035;-86
2022/01/31 12:47:32;;;;;;;4.22;2.20;;;4.60;99.90;;;;;;6128309;29;20033;-83
2022/01/31 12:50:34;;;;;;;4.70;1.80;;;4.70;99.90;;;;;;6111510;28;20031;-83
2022/01/31 12:53:40;;;;;;;2.42;2.17;;;5.10;99.90;;;;;;6129036;28;20504;-81
2022/01/31 12:56:41;;;;;;;2.72;2.17;;;5.10;99.90;;;;;;6129460;28;20387;-87
2022/01/31 12:59:46;;;;;;;3.90;2.50;;;5.00;99.90;;;;;;6113792;29;20114;-85
2022/01/31 13:02:49;;;;;;;5.65;2.40;;;4.90;99.90;;;;;;6129464;29;20579;-82
2022/01/31 13:05:50;;;;;;;4.07;2.13;;;4.80;99.90;;;;;;6128847;29;20027;-83
2022/01/31 13:08:51;;;;;;;3.45;2.33;;;6.60;99.90;;;;;;6113387;29;20042;-84
2022/01/31 13:11:52;;;;;;;4.43;2.28;;;5.00;99.90;;;;;;6128782;29;20059;-82
2022/01/31 13:14:53;;;;;;;4.65;2.70;;;4.50;99.90;;;;;;6113758;28;20605;-81
2022/01/31 13:18:07;;;;;;;6.75;3.35;;;4.40;99.90;;;;;;6112960;29;20509;-81
2022/01/31 13:21:12;;;;;;;6.50;4.15;;;4.40;99.90;;;;;;6116068;29;20062;-84
2022/01/31 13:24:17;;;;;;;8.70;3.90;;;5.00;99.90;;;;;;6117946;28;20126;-82
2022/01/31 13:27:21;;;;;;;8.50;4.95;;;4.60;99.90;;;;;;6117923;29;20034;-80
2022/01/31 13:30:26;;;;;;;9.02;5.28;;;4.40;99.90;;;;;;6117810;29;20434;-81
2022/01/31 13:33:27;;;;;;;16.05;4.93;;;4.50;99.90;;;;;;6134001;29;20067;-82
2022/01/31 13:36:27;;;;;;;7.40;3.88;;;4.50;99.90;;;;;;6117519;29;20188;-79
2022/01/31 13:39:28;;;;;;;7.13;4.38;;;4.70;99.90;;;;;;6133673;29;20034;-81
2022/01/31 13:42:30;;;;;;;5.45;2.40;;;4.50;99.90;;;;;;6133338;29;20035;-83
2022/01/31 13:45:43;;;;;;;8.32;2.67;;;4.70;99.90;;;;;;6117560;29;20031;-81
2022/01/31 13:51:52;;;;;;;5.35;2.22;;;4.70;99.90;;;;;;6133405;29;20369;-81
2022/01/31 13:54:52;;;;;;;6.30;2.40;;;4.70;99.90;;;;;;6117030;29;20058;-81
2022/01/31 13:57:53;;;;;;;6.60;2.63;;;5.80;99.90;;;;;;6132804;29;20089;-83
2022/01/31 14:00:54;;;;;;;7.68;3.20;;;6.40;99.90;;;;;;6117067;29;20042;-81
2022/01/31 14:03:55;;;;;;;6.70;2.63;;;5.00;99.90;;;;;;6131825;29;20038;-81
2022/01/31 14:06:55;;;;;;;3.92;2.60;;;4.70;99.90;;;;;;6117004;29;20413;-81
2022/01/31 14:09:56;;;;;;;5.38;2.40;;;4.70;99.90;;;;;;6116799;28;20509;-84
2022/01/31 14:13:01;;;;;;;3.97;2.75;;;5.00;99.90;;;;;;6133003;29;20027;-83
2022/01/31 14:16:02;;;;;;;4.88;2.30;;;4.50;99.90;;;;;;6116374;28;20154;-82
2022/01/31 14:19:10;;;;;;;6.82;3.25;;;4.60;99.90;;;;;;6116621;29;20027;-82
2022/01/31 14:22:10;;;;;;;5.07;2.83;;;4.50;99.90;;;;;;6116496;29;20548;-82
2022/01/31 14:25:11;;;;;;;5.78;3.05;;;4.30;99.90;;;;;;6132411;29;20050;-82
2022/01/31 14:28:13;;;;;;;8.80;3.58;;;4.40;99.90;;;;;;6132305;29;20023;-81
2022/01/31 14:31:14;;;;;;;7.40;2.83;;;4.40;99.90;;;;;;6116399;28;20027;-82
2022/01/31 14:34:16;;;;;;;7.90;3.35;;;4.40;99.90;;;;;;6116148;28;20038;-81
2022/01/31 14:37:21;;;;;;;4.68;2.53;;;4.30;99.90;;;;;;6100387;29;20050;-81
2022/01/31 14:47:16;;;;;;;11.00;4.72;;;4.60;99.90;;;;;;6134486;29;20043;-81
2022/01/31 14:50:24;;;;;;;7.28;3.70;;;4.40;99.90;;;;;;6118306;29;20035;-81
2022/01/31 14:53:25;;;;;;;6.00;3.83;;;4.50;99.90;;;;;;6115930;28;20478;-86
2022/01/31 14:56:26;;;;;;;4.43;2.75;;;4.40;99.90;;;;;;6116170;29;20162;-83
2022/01/31 14:59:26;;;;;;;4.45;3.00;;;4.40;99.90;;;;;;6131793;29;20137;-82
2022/01/31 15:02:30;;;;;;;8.40;3.22;;;5.50;99.90;;;;;;6115898;28;20118;-81
2022/01/31 15:05:30;;;;;;;8.35;3.00;;;4.30;99.90;;;;;;6133099;28;20111;-83
2022/01/31 15:08:31;;;;;;;5.72;3.15;;;4.20;99.90;;;;;;6132583;28;20366;-82
2022/01/31 15:11:32;;;;;;;6.43;3.05;;;4.20;99.90;;;;;;6116375;28;20134;-81
2022/01/31 15:14:32;;;;;;;7.10;3.55;;;5.20;99.90;;;;;;6149332;28;20027;-81
2022/01/31 15:17:33;;;;;;;7.75;3.13;;;3.90;99.90;;;;;;6132297;28;20074;-82
2022/01/31 15:20:36;;;;;;;6.47;3.00;;;5.70;99.90;;;;;;6115312;28;20075;-83
2022/01/31 15:23:39;;;;;;;5.90;3.05;;;4.20;99.90;;;;;;6101587;28;20034;-80
2022/01/31 15:26:40;;;;;;;6.32;3.25;;;4.10;99.90;;;;;;6132189;28;20405;-81
2022/01/31 15:29:40;;;;;;;11.80;5.28;;;4.10;99.90;;;;;;6116280;28;20023;-85
2022/01/31 15:32:41;;;;;;;3.97;2.65;;;3.80;99.90;;;;;;6132302;28;20039;-84
2022/01/31 15:35:42;;;;;;;3.55;1.90;;;4.30;99.90;;;;;;6131445;28;20039;-82
2022/01/31 15:38:43;;;;;;;5.20;2.78;;;4.70;99.90;;;;;;6115621;29;20126;-83
2022/01/31 15:41:47;;;;;;;8.43;3.38;;;4.00;99.90;;;;;;6131162;29;20385;-82
2022/01/31 15:44:54;;;;;;;7.80;2.50;;;4.00;99.90;;;;;;6130829;29;20023;-82
2022/01/31 15:47:55;;;;;;;9.52;2.88;;;4.00;99.90;;;;;;6113976;29;20023;-81
2022/01/31 15:50:56;;;;;;;6.15;2.60;;;4.00;99.90;;;;;;6129572;29;20035;-81
2022/01/31 15:53:56;;;;;;;3.97;2.60;;;4.90;99.90;;;;;;6114073;28;20397;-80
2022/01/31 15:56:57;;;;;;;4.47;2.28;;;4.20;99.90;;;;;;6131587;28;20035;-79
2022/01/31 15:59:57;;;;;;;7.75;3.20;;;4.00;99.90;;;;;;6130576;28;20086;-83
2022/01/31 16:03:00;;;;;;;8.32;2.38;;;4.30;99.90;;;;;;6116051;28;20355;-81
2022/01/31 16:06:00;;;;;;;;;;;4.60;99.90;;;;;;6133139;28;20489;-80
2022/01/31 16:09:01;;;;;;;11.45;6.13;;;3.90;99.90;;;;;;6114264;28;20694;-80
2022/01/31 16:12:04;;;;;;;11.68;5.72;;;3.70;99.90;;;;;;6114541;29;20514;-81
2022/01/31 16:15:05;;;;;;;12.25;5.80;;;3.90;99.90;;;;;;6113950;29;20037;-79
2022/01/31 16:18:06;;;;;;;6.78;3.00;;;3.90;99.90;;;;;;6129763;29;20097;-81
2022/01/31 16:21:07;;;;;;;5.32;2.90;;;4.20;99.90;;;;;;6129474;28;20027;-79
2022/01/31 16:24:08;;;;;;;8.43;2.92;;;4.80;99.90;;;;;;6129776;29;20042;-79
2022/01/31 16:27:09;;;;;;;6.57;2.72;;;3.90;99.90;;;;;;6129446;29;20576;-78
2022/01/31 16:30:10;;;;;;;5.72;2.50;;;3.90;99.90;;;;;;6113843;29;20030;-79
2022/01/31 16:33:11;;;;;;;8.67;2.67;;;3.80;99.90;;;;;;6129635;29;20054;-78
2022/01/31 16:36:12;;;;;;;4.95;2.80;;;4.40;99.90;;;;;;6113202;29;20382;-80
2022/01/31 16:39:13;;;;;;;4.05;2.40;;;5.10;99.90;;;;;;6113735;29;20030;-79
2022/01/31 16:42:13;;;;;;;6.25;2.80;;;4.80;99.90;;;;;;6129150;28;20034;-80